sensor_id;sensor_type;location;lat;lon;timestamp;P1;durP1;ratioP1;P2;durP2;ratioP2
26686;SDS011;14298;50.900;4.648;2022-09-03T00:00:39;9.03;;;2.43;;
26686;SDS011;14298;50.900;4.648;2022-09-03T00:03:21;4.33;;;2.03;;
26686;SDS011;14298;50.900;4.648;2022-09-03T00:06:11;4.03;;;2.10;;
26686;SDS011;14298;50.900;4.648;2022-09-03T00:09:04;3.30;;;1.93;;
26686;SDS011;14298;50.900;4.648;2022-09-03T00:14:33;4.83;;;2.07;;
26686;SDS011;14298;50.900;4.648;2022-09-03T00:17:14;4.47;;;2.17;;
26686;SDS011;14298;50.900;4.648;2022-09-03T00:22:38;3.83;;;1.80;;
26686;SDS011;14298;50.900;4.648;2022-09-03T00:25:02;2.83;;;1.97;;
26686;SDS011;14298;50.900;4.648;2022-09-03T00:27:36;5.50;;;2.03;;
26686;SDS011;14298;50.900;4.648;2022-09-03T00:30:11;2.50;;;1.87;;
26686;SDS011;14298;50.900;4.648;2022-09-03T00:35:38;3.20;;;1.90;;
26686;SDS011;14298;50.900;4.648;2022-09-03T00:37:55;5.63;;;1.93;;
26686;SDS011;14298;50.900;4.648;2022-09-03T00:40:37;2.43;;;1.90;;
26686;SDS011;14298;50.900;4.648;2022-09-03T00:46:25;2.23;;;1.93;;
26686;SDS011;14298;50.900;4.648;2022-09-03T00:51:36;5.93;;;1.87;;
26686;SDS011;14298;50.900;4.648;2022-09-03T00:54:25;3.10;;;1.90;;
26686;SDS011;14298;50.900;4.648;2022-09-03T01:02:45;4.83;;;1.73;;
26686;SDS011;14298;50.900;4.648;2022-09-03T01:10:51;3.33;;;1.93;;
26686;SDS011;14298;50.900;4.648;2022-09-03T01:13:30;3.47;;;1.90;;
26686;SDS011;14298;50.900;4.648;2022-09-03T01:16:20;6.73;;;2.13;;
26686;SDS011;14298;50.900;4.648;2022-09-03T01:18:56;5.70;;;1.63;;
26686;SDS011;14298;50.900;4.648;2022-09-03T01:24:13;4.17;;;1.70;;
26686;SDS011;14298;50.900;4.648;2022-09-03T01:29:21;1.83;;;1.53;;
26686;SDS011;14298;50.900;4.648;2022-09-03T01:34:42;4.33;;;1.60;;
26686;SDS011;14298;50.900;4.648;2022-09-03T01:45:44;1.60;;;1.50;;
26686;SDS011;14298;50.900;4.648;2022-09-03T01:48:29;4.60;;;1.87;;
26686;SDS011;14298;50.900;4.648;2022-09-03T01:59:33;3.97;;;1.30;;
26686;SDS011;14298;50.900;4.648;2022-09-03T02:02:17;3.60;;;1.60;;
26686;SDS011;14298;50.900;4.648;2022-09-03T02:04:58;2.57;;;1.50;;
26686;SDS011;14298;50.900;4.648;2022-09-03T02:07:29;5.83;;;1.60;;
26686;SDS011;14298;50.900;4.648;2022-09-03T02:10:00;2.20;;;1.30;;
26686;SDS011;14298;50.900;4.648;2022-09-03T02:12:31;1.63;;;1.40;;
26686;SDS011;14298;50.900;4.648;2022-09-03T02:15:05;4.63;;;1.30;;
26686;SDS011;14298;50.900;4.648;2022-09-03T02:17:35;2.30;;;1.40;;
26686;SDS011;14298;50.900;4.648;2022-09-03T02:20:05;3.47;;;1.60;;
26686;SDS011;14298;50.900;4.648;2022-09-03T02:22:38;1.30;;;1.20;;
26686;SDS011;14298;50.900;4.648;2022-09-03T02:25:07;6.23;;;2.50;;
26686;SDS011;14298;50.900;4.648;2022-09-03T02:27:39;2.07;;;1.60;;
26686;SDS011;14298;50.900;4.648;2022-09-03T02:30:09;3.90;;;1.63;;
26686;SDS011;14298;50.900;4.648;2022-09-03T02:32:38;2.90;;;1.50;;
26686;SDS011;14298;50.900;4.648;2022-09-03T02:35:07;3.87;;;1.77;;
26686;SDS011;14298;50.900;4.648;2022-09-03T02:37:35;2.03;;;1.70;;
26686;SDS011;14298;50.900;4.648;2022-09-03T02:40:04;3.43;;;2.00;;
26686;SDS011;14298;50.900;4.648;2022-09-03T02:42:35;3.03;;;1.60;;
26686;SDS011;14298;50.900;4.648;2022-09-03T02:45:09;5.10;;;1.93;;
26686;SDS011;14298;50.900;4.648;2022-09-03T02:47:51;2.93;;;1.57;;
26686;SDS011;14298;50.900;4.648;2022-09-03T02:50:21;1.73;;;1.43;;
26686;SDS011;14298;50.900;4.648;2022-09-03T02:52:50;1.70;;;1.60;;
26686;SDS011;14298;50.900;4.648;2022-09-03T02:55:19;3.03;;;1.57;;
26686;SDS011;14298;50.900;4.648;2022-09-03T02:57:48;2.63;;;1.63;;
26686;SDS011;14298;50.900;4.648;2022-09-03T03:00:17;3.33;;;1.53;;
26686;SDS011;14298;50.900;4.648;2022-09-03T03:02:45;5.33;;;1.60;;
26686;SDS011;14298;50.900;4.648;2022-09-03T03:05:15;2.30;;;1.60;;
26686;SDS011;14298;50.900;4.648;2022-09-03T03:07:45;5.10;;;1.53;;
26686;SDS011;14298;50.900;4.648;2022-09-03T03:10:13;2.10;;;1.60;;
26686;SDS011;14298;50.900;4.648;2022-09-03T03:12:43;4.83;;;1.70;;
26686;SDS011;14298;50.900;4.648;2022-09-03T03:15:11;2.23;;;1.60;;
26686;SDS011;14298;50.900;4.648;2022-09-03T03:17:40;4.40;;;1.60;;
26686;SDS011;14298;50.900;4.648;2022-09-03T03:20:09;3.70;;;1.53;;
26686;SDS011;14298;50.900;4.648;2022-09-03T03:22:37;6.73;;;1.70;;
26686;SDS011;14298;50.900;4.648;2022-09-03T03:25:06;2.90;;;1.43;;
26686;SDS011;14298;50.900;4.648;2022-09-03T03:27:35;1.80;;;1.50;;
26686;SDS011;14298;50.900;4.648;2022-09-03T03:30:05;5.20;;;1.77;;
26686;SDS011;14298;50.900;4.648;2022-09-03T03:32:35;5.13;;;1.67;;
26686;SDS011;14298;50.900;4.648;2022-09-03T03:35:04;3.73;;;1.60;;
26686;SDS011;14298;50.900;4.648;2022-09-03T03:37:33;3.03;;;1.70;;
26686;SDS011;14298;50.900;4.648;2022-09-03T03:40:02;3.63;;;1.83;;
26686;SDS011;14298;50.900;4.648;2022-09-03T03:42:32;2.70;;;1.70;;
26686;SDS011;14298;50.900;4.648;2022-09-03T03:45:00;3.83;;;1.87;;
26686;SDS011;14298;50.900;4.648;2022-09-03T03:47:29;2.77;;;1.67;;
26686;SDS011;14298;50.900;4.648;2022-09-03T03:49:58;1.87;;;1.73;;
26686;SDS011;14298;50.900;4.648;2022-09-03T03:52:26;2.60;;;1.70;;
26686;SDS011;14298;50.900;4.648;2022-09-03T03:54:55;2.17;;;1.67;;
26686;SDS011;14298;50.900;4.648;2022-09-03T03:57:23;3.43;;;1.37;;
26686;SDS011;14298;50.900;4.648;2022-09-03T03:59:52;2.20;;;1.30;;
26686;SDS011;14298;50.900;4.648;2022-09-03T04:02:20;1.93;;;1.37;;
26686;SDS011;14298;50.900;4.648;2022-09-03T04:04:49;4.50;;;1.50;;
26686;SDS011;14298;50.900;4.648;2022-09-03T04:07:17;2.00;;;1.47;;
26686;SDS011;14298;50.900;4.648;2022-09-03T04:09:45;6.57;;;1.70;;
26686;SDS011;14298;50.900;4.648;2022-09-03T04:12:14;4.63;;;1.53;;
26686;SDS011;14298;50.900;4.648;2022-09-03T04:14:44;3.43;;;1.77;;
26686;SDS011;14298;50.900;4.648;2022-09-03T04:17:13;5.37;;;1.53;;
26686;SDS011;14298;50.900;4.648;2022-09-03T04:19:41;2.07;;;1.37;;
26686;SDS011;14298;50.900;4.648;2022-09-03T04:22:09;1.60;;;1.50;;
26686;SDS011;14298;50.900;4.648;2022-09-03T04:24:39;3.37;;;1.50;;
26686;SDS011;14298;50.900;4.648;2022-09-03T04:27:07;3.97;;;1.63;;
26686;SDS011;14298;50.900;4.648;2022-09-03T04:29:36;7.40;;;1.60;;
26686;SDS011;14298;50.900;4.648;2022-09-03T04:32:04;2.70;;;1.47;;
26686;SDS011;14298;50.900;4.648;2022-09-03T04:34:50;2.03;;;1.57;;
26686;SDS011;14298;50.900;4.648;2022-09-03T04:37:19;3.27;;;1.60;;
26686;SDS011;14298;50.900;4.648;2022-09-03T04:39:47;1.63;;;1.50;;
26686;SDS011;14298;50.900;4.648;2022-09-03T04:42:15;3.83;;;1.53;;
26686;SDS011;14298;50.900;4.648;2022-09-03T04:44:44;3.20;;;1.60;;
26686;SDS011;14298;50.900;4.648;2022-09-03T04:47:12;5.77;;;1.60;;
26686;SDS011;14298;50.900;4.648;2022-09-03T04:49:41;2.07;;;1.50;;
26686;SDS011;14298;50.900;4.648;2022-09-03T04:52:10;6.23;;;2.43;;
26686;SDS011;14298;50.900;4.648;2022-09-03T04:54:38;6.10;;;1.83;;
26686;SDS011;14298;50.900;4.648;2022-09-03T04:57:07;5.90;;;2.03;;
26686;SDS011;14298;50.900;4.648;2022-09-03T04:59:36;5.60;;;1.70;;
26686;SDS011;14298;50.900;4.648;2022-09-03T05:02:04;11.57;;;2.47;;
26686;SDS011;14298;50.900;4.648;2022-09-03T05:04:33;10.40;;;2.00;;
26686;SDS011;14298;50.900;4.648;2022-09-03T05:07:02;4.50;;;2.10;;
26686;SDS011;14298;50.900;4.648;2022-09-03T05:09:30;8.03;;;2.23;;
26686;SDS011;14298;50.900;4.648;2022-09-03T05:11:58;2.30;;;2.10;;
26686;SDS011;14298;50.900;4.648;2022-09-03T05:14:27;3.13;;;2.10;;
26686;SDS011;14298;50.900;4.648;2022-09-03T05:16:55;3.77;;;2.00;;
26686;SDS011;14298;50.900;4.648;2022-09-03T05:19:23;2.70;;;2.13;;
26686;SDS011;14298;50.900;4.648;2022-09-03T05:21:52;8.87;;;2.23;;
26686;SDS011;14298;50.900;4.648;2022-09-03T05:24:20;3.53;;;1.90;;
26686;SDS011;14298;50.900;4.648;2022-09-03T05:26:48;2.83;;;2.03;;
26686;SDS011;14298;50.900;4.648;2022-09-03T05:29:17;3.93;;;1.93;;
26686;SDS011;14298;50.900;4.648;2022-09-03T05:31:47;4.60;;;2.30;;
26686;SDS011;14298;50.900;4.648;2022-09-03T05:34:15;5.30;;;1.83;;
26686;SDS011;14298;50.900;4.648;2022-09-03T05:36:43;4.80;;;1.97;;
26686;SDS011;14298;50.900;4.648;2022-09-03T05:39:13;4.30;;;2.10;;
26686;SDS011;14298;50.900;4.648;2022-09-03T05:41:42;3.53;;;2.10;;
26686;SDS011;14298;50.900;4.648;2022-09-03T05:44:10;6.40;;;2.20;;
26686;SDS011;14298;50.900;4.648;2022-09-03T05:46:38;3.90;;;1.80;;
26686;SDS011;14298;50.900;4.648;2022-09-03T05:49:07;8.43;;;2.33;;
26686;SDS011;14298;50.900;4.648;2022-09-03T05:51:37;8.93;;;2.20;;
26686;SDS011;14298;50.900;4.648;2022-09-03T05:54:05;12.40;;;2.40;;
26686;SDS011;14298;50.900;4.648;2022-09-03T05:56:35;10.00;;;2.63;;
26686;SDS011;14298;50.900;4.648;2022-09-03T05:59:07;11.90;;;2.63;;
26686;SDS011;14298;50.900;4.648;2022-09-03T06:01:40;7.03;;;2.50;;
26686;SDS011;14298;50.900;4.648;2022-09-03T06:04:11;5.10;;;1.80;;
26686;SDS011;14298;50.900;4.648;2022-09-03T06:06:44;7.77;;;2.03;;
26686;SDS011;14298;50.900;4.648;2022-09-03T06:09:19;7.87;;;2.60;;
26686;SDS011;14298;50.900;4.648;2022-09-03T06:11:44;4.97;;;2.20;;
26686;SDS011;14298;50.900;4.648;2022-09-03T06:14:15;5.93;;;1.80;;
26686;SDS011;14298;50.900;4.648;2022-09-03T06:16:44;4.37;;;1.80;;
26686;SDS011;14298;50.900;4.648;2022-09-03T06:19:18;5.10;;;1.73;;
26686;SDS011;14298;50.900;4.648;2022-09-03T06:21:46;3.67;;;2.00;;
26686;SDS011;14298;50.900;4.648;2022-09-03T06:24:16;3.10;;;2.00;;
26686;SDS011;14298;50.900;4.648;2022-09-03T06:26:47;3.57;;;1.80;;
26686;SDS011;14298;50.900;4.648;2022-09-03T06:29:16;5.83;;;1.97;;
26686;SDS011;14298;50.900;4.648;2022-09-03T06:31:45;4.60;;;2.33;;
26686;SDS011;14298;50.900;4.648;2022-09-03T06:34:14;5.53;;;1.73;;
26686;SDS011;14298;50.900;4.648;2022-09-03T06:36:44;4.40;;;1.70;;
26686;SDS011;14298;50.900;4.648;2022-09-03T06:39:12;6.20;;;2.00;;
26686;SDS011;14298;50.900;4.648;2022-09-03T06:41:41;6.70;;;1.80;;
26686;SDS011;14298;50.900;4.648;2022-09-03T06:44:11;7.43;;;2.03;;
26686;SDS011;14298;50.900;4.648;2022-09-03T06:46:40;2.03;;;1.53;;
26686;SDS011;14298;50.900;4.648;2022-09-03T06:49:09;1.90;;;1.60;;
26686;SDS011;14298;50.900;4.648;2022-09-03T06:51:38;3.07;;;1.77;;
26686;SDS011;14298;50.900;4.648;2022-09-03T06:54:09;8.87;;;1.90;;
26686;SDS011;14298;50.900;4.648;2022-09-03T06:56:39;5.00;;;1.80;;
26686;SDS011;14298;50.900;4.648;2022-09-03T06:59:09;3.27;;;1.80;;
26686;SDS011;14298;50.900;4.648;2022-09-03T07:01:39;8.77;;;1.60;;
26686;SDS011;14298;50.900;4.648;2022-09-03T07:04:09;3.00;;;1.70;;
26686;SDS011;14298;50.900;4.648;2022-09-03T07:06:39;5.13;;;1.83;;
26686;SDS011;14298;50.900;4.648;2022-09-03T07:09:09;2.20;;;1.80;;
26686;SDS011;14298;50.900;4.648;2022-09-03T07:11:39;3.70;;;1.60;;
26686;SDS011;14298;50.900;4.648;2022-09-03T07:14:09;4.90;;;1.70;;
26686;SDS011;14298;50.900;4.648;2022-09-03T07:16:37;5.27;;;1.83;;
26686;SDS011;14298;50.900;4.648;2022-09-03T07:19:07;8.03;;;1.60;;
26686;SDS011;14298;50.900;4.648;2022-09-03T07:21:36;5.50;;;1.50;;
26686;SDS011;14298;50.900;4.648;2022-09-03T07:24:04;4.50;;;1.70;;
26686;SDS011;14298;50.900;4.648;2022-09-03T07:26:34;5.07;;;1.73;;
26686;SDS011;14298;50.900;4.648;2022-09-03T07:29:05;2.53;;;1.60;;
26686;SDS011;14298;50.900;4.648;2022-09-03T07:31:36;2.23;;;1.67;;
26686;SDS011;14298;50.900;4.648;2022-09-03T07:34:07;2.40;;;1.50;;
26686;SDS011;14298;50.900;4.648;2022-09-03T07:36:45;1.80;;;1.50;;
26686;SDS011;14298;50.900;4.648;2022-09-03T07:39:16;5.00;;;1.73;;
26686;SDS011;14298;50.900;4.648;2022-09-03T07:41:44;2.03;;;1.70;;
26686;SDS011;14298;50.900;4.648;2022-09-03T07:44:13;4.60;;;1.90;;
26686;SDS011;14298;50.900;4.648;2022-09-03T07:46:44;3.60;;;1.67;;
26686;SDS011;14298;50.900;4.648;2022-09-03T07:49:14;3.50;;;1.30;;
26686;SDS011;14298;50.900;4.648;2022-09-03T07:51:43;3.47;;;1.60;;
26686;SDS011;14298;50.900;4.648;2022-09-03T07:54:12;7.30;;;1.70;;
26686;SDS011;14298;50.900;4.648;2022-09-03T07:56:40;3.00;;;1.70;;
26686;SDS011;14298;50.900;4.648;2022-09-03T07:59:08;3.07;;;2.00;;
26686;SDS011;14298;50.900;4.648;2022-09-03T08:01:37;5.73;;;1.93;;
26686;SDS011;14298;50.900;4.648;2022-09-03T08:04:06;5.00;;;1.80;;
26686;SDS011;14298;50.900;4.648;2022-09-03T08:06:34;1.70;;;1.47;;
26686;SDS011;14298;50.900;4.648;2022-09-03T08:09:04;7.97;;;2.07;;
26686;SDS011;14298;50.900;4.648;2022-09-03T08:11:35;5.07;;;1.70;;
26686;SDS011;14298;50.900;4.648;2022-09-03T08:14:06;1.67;;;1.57;;
26686;SDS011;14298;50.900;4.648;2022-09-03T08:16:43;2.43;;;1.70;;
26686;SDS011;14298;50.900;4.648;2022-09-03T08:19:07;2.27;;;1.87;;
26686;SDS011;14298;50.900;4.648;2022-09-03T08:21:37;5.92;;;1.77;;
26686;SDS011;14298;50.900;4.648;2022-09-03T08:24:09;3.75;;;1.77;;
26686;SDS011;14298;50.900;4.648;2022-09-03T08:26:39;2.35;;;1.87;;
26686;SDS011;14298;50.900;4.648;2022-09-03T08:29:09;7.62;;;2.00;;
26686;SDS011;14298;50.900;4.648;2022-09-03T08:31:37;1.92;;;1.72;;
26686;SDS011;14298;50.900;4.648;2022-09-03T08:34:05;12.70;;;2.10;;
26686;SDS011;14298;50.900;4.648;2022-09-03T08:36:36;1.72;;;1.62;;
26686;SDS011;14298;50.900;4.648;2022-09-03T08:39:07;4.92;;;1.85;;
26686;SDS011;14298;50.900;4.648;2022-09-03T08:47:20;2.77;;;1.80;;
26686;SDS011;14298;50.900;4.648;2022-09-03T08:49:51;4.40;;;1.90;;
26686;SDS011;14298;50.900;4.648;2022-09-03T08:52:29;4.62;;;1.87;;
26686;SDS011;14298;50.900;4.648;2022-09-03T08:55:02;2.58;;;2.05;;
26686;SDS011;14298;50.900;4.648;2022-09-03T08:57:31;2.00;;;1.90;;
26686;SDS011;14298;50.900;4.648;2022-09-03T09:00:03;3.17;;;2.08;;
26686;SDS011;14298;50.900;4.648;2022-09-03T09:02:43;2.40;;;1.95;;
26686;SDS011;14298;50.900;4.648;2022-09-03T09:05:32;3.08;;;2.37;;
26686;SDS011;14298;50.900;4.648;2022-09-03T09:08:02;5.03;;;2.30;;
26686;SDS011;14298;50.900;4.648;2022-09-03T09:10:36;6.28;;;2.20;;
26686;SDS011;14298;50.900;4.648;2022-09-03T09:13:16;5.37;;;2.17;;
26686;SDS011;14298;50.900;4.648;2022-09-03T09:18:48;6.05;;;2.45;;
26686;SDS011;14298;50.900;4.648;2022-09-03T09:21:22;5.75;;;1.90;;
26686;SDS011;14298;50.900;4.648;2022-09-03T09:23:53;9.48;;;2.37;;
26686;SDS011;14298;50.900;4.648;2022-09-03T09:26:24;2.92;;;2.37;;
26686;SDS011;14298;50.900;4.648;2022-09-03T09:28:54;6.42;;;2.35;;
26686;SDS011;14298;50.900;4.648;2022-09-03T09:31:24;3.12;;;2.20;;
26686;SDS011;14298;50.900;4.648;2022-09-03T09:34:06;5.90;;;2.60;;
26686;SDS011;14298;50.900;4.648;2022-09-03T09:36:30;2.75;;;2.30;;
26686;SDS011;14298;50.900;4.648;2022-09-03T09:39:06;6.53;;;2.60;;
26686;SDS011;14298;50.900;4.648;2022-09-03T09:41:35;4.30;;;2.65;;
26686;SDS011;14298;50.900;4.648;2022-09-03T09:44:04;2.62;;;2.42;;
26686;SDS011;14298;50.900;4.648;2022-09-03T09:46:36;4.92;;;2.75;;
26686;SDS011;14298;50.900;4.648;2022-09-03T09:49:55;2.67;;;2.47;;
26686;SDS011;14298;50.900;4.648;2022-09-03T09:52:01;7.08;;;2.80;;
26686;SDS011;14298;50.900;4.648;2022-09-03T09:54:38;8.58;;;2.72;;
26686;SDS011;14298;50.900;4.648;2022-09-03T09:57:15;8.83;;;2.87;;
26686;SDS011;14298;50.900;4.648;2022-09-03T09:59:45;3.40;;;3.00;;
26686;SDS011;14298;50.900;4.648;2022-09-03T10:02:19;5.42;;;2.80;;
26686;SDS011;14298;50.900;4.648;2022-09-03T10:04:55;4.65;;;2.47;;
26686;SDS011;14298;50.900;4.648;2022-09-03T10:07:26;4.92;;;3.02;;
26686;SDS011;14298;50.900;4.648;2022-09-03T10:10:04;6.37;;;2.87;;
26686;SDS011;14298;50.900;4.648;2022-09-03T10:15:17;9.58;;;3.12;;
26686;SDS011;14298;50.900;4.648;2022-09-03T10:23:28;3.50;;;2.98;;
26686;SDS011;14298;50.900;4.648;2022-09-03T10:28:33;4.28;;;3.58;;
26686;SDS011;14298;50.900;4.648;2022-09-03T10:40:08;6.85;;;3.00;;
26686;SDS011;14298;50.900;4.648;2022-09-03T10:45:28;18.98;;;4.12;;
26686;SDS011;14298;50.900;4.648;2022-09-03T10:48:07;5.37;;;3.37;;
26686;SDS011;14298;50.900;4.648;2022-09-03T10:50:43;7.65;;;3.40;;
26686;SDS011;14298;50.900;4.648;2022-09-03T10:56:08;4.20;;;3.20;;
26686;SDS011;14298;50.900;4.648;2022-09-03T11:06:47;5.30;;;3.40;;
26686;SDS011;14298;50.900;4.648;2022-09-03T11:12:04;4.65;;;3.33;;
26686;SDS011;14298;50.900;4.648;2022-09-03T11:14:42;5.12;;;3.50;;
26686;SDS011;14298;50.900;4.648;2022-09-03T11:17:19;5.95;;;3.35;;
26686;SDS011;14298;50.900;4.648;2022-09-03T11:19:45;11.12;;;3.92;;
26686;SDS011;14298;50.900;4.648;2022-09-03T11:22:19;8.30;;;3.67;;
26686;SDS011;14298;50.900;4.648;2022-09-03T11:24:50;6.55;;;3.30;;
26686;SDS011;14298;50.900;4.648;2022-09-03T11:27:31;6.08;;;3.33;;
26686;SDS011;14298;50.900;4.648;2022-09-03T11:30:05;4.97;;;3.50;;
26686;SDS011;14298;50.900;4.648;2022-09-03T11:32:44;18.15;;;4.08;;
26686;SDS011;14298;50.900;4.648;2022-09-03T11:35:15;5.47;;;3.30;;
26686;SDS011;14298;50.900;4.648;2022-09-03T11:37:51;5.80;;;3.67;;
26686;SDS011;14298;50.900;4.648;2022-09-03T11:40:28;6.78;;;3.50;;
26686;SDS011;14298;50.900;4.648;2022-09-03T11:46:03;6.83;;;3.50;;
26686;SDS011;14298;50.900;4.648;2022-09-03T11:51:17;6.78;;;3.67;;
26686;SDS011;14298;50.900;4.648;2022-09-03T11:54:23;4.13;;;3.67;;
26686;SDS011;14298;50.900;4.648;2022-09-03T11:56:41;4.97;;;3.22;;
26686;SDS011;14298;50.900;4.648;2022-09-03T12:16:02;6.47;;;3.05;;
26686;SDS011;14298;50.900;4.648;2022-09-03T12:18:45;3.70;;;3.40;;
26686;SDS011;14298;50.900;4.648;2022-09-03T12:21:16;5.37;;;3.20;;
26686;SDS011;14298;50.900;4.648;2022-09-03T12:23:47;5.25;;;3.40;;
26686;SDS011;14298;50.900;4.648;2022-09-03T12:26:21;7.03;;;3.30;;
26686;SDS011;14298;50.900;4.648;2022-09-03T12:28:58;3.75;;;2.65;;
26686;SDS011;14298;50.900;4.648;2022-09-03T12:31:28;5.65;;;3.25;;
26686;SDS011;14298;50.900;4.648;2022-09-03T12:33:59;5.47;;;3.08;;
26686;SDS011;14298;50.900;4.648;2022-09-03T12:36:44;3.47;;;3.13;;
26686;SDS011;14298;50.900;4.648;2022-09-03T12:39:11;4.45;;;3.50;;
26686;SDS011;14298;50.900;4.648;2022-09-03T12:44:30;4.10;;;3.22;;
26686;SDS011;14298;50.900;4.648;2022-09-03T12:47:10;3.67;;;3.15;;
26686;SDS011;14298;50.900;4.648;2022-09-03T12:49:44;10.75;;;2.90;;
26686;SDS011;14298;50.900;4.648;2022-09-03T12:55:02;3.67;;;2.90;;
26686;SDS011;14298;50.900;4.648;2022-09-03T13:00:28;4.45;;;3.15;;
26686;SDS011;14298;50.900;4.648;2022-09-03T13:03:01;4.58;;;2.90;;
26686;SDS011;14298;50.900;4.648;2022-09-03T13:05:41;8.58;;;3.17;;
26686;SDS011;14298;50.900;4.648;2022-09-03T13:08:17;7.25;;;3.42;;
26686;SDS011;14298;50.900;4.648;2022-09-03T13:10:42;5.33;;;3.25;;
26686;SDS011;14298;50.900;4.648;2022-09-03T13:13:21;2.80;;;2.60;;
26686;SDS011;14298;50.900;4.648;2022-09-03T13:15:55;3.65;;;2.20;;
26686;SDS011;14298;50.900;4.648;2022-09-03T13:18:46;2.75;;;2.50;;
26686;SDS011;14298;50.900;4.648;2022-09-03T13:21:18;3.37;;;2.58;;
26686;SDS011;14298;50.900;4.648;2022-09-03T13:26:23;2.45;;;2.35;;
26686;SDS011;14298;50.900;4.648;2022-09-03T13:31:46;2.47;;;2.37;;
26686;SDS011;14298;50.900;4.648;2022-09-03T13:34:21;3.17;;;2.83;;
26686;SDS011;14298;50.900;4.648;2022-09-03T13:36:54;4.87;;;2.77;;
26686;SDS011;14298;50.900;4.648;2022-09-03T13:39:34;3.10;;;2.60;;
26686;SDS011;14298;50.900;4.648;2022-09-03T13:42:04;6.28;;;2.50;;
26686;SDS011;14298;50.900;4.648;2022-09-03T13:52:42;4.25;;;3.00;;
26686;SDS011;14298;50.900;4.648;2022-09-03T14:00:46;4.12;;;3.60;;
26686;SDS011;14298;50.900;4.648;2022-09-03T14:03:32;9.98;;;3.40;;
26686;SDS011;14298;50.900;4.648;2022-09-03T14:08:58;3.60;;;3.00;;
26686;SDS011;14298;50.900;4.648;2022-09-03T14:15:16;5.20;;;3.00;;
26686;SDS011;14298;50.900;4.648;2022-09-03T14:22:49;5.03;;;3.17;;
26686;SDS011;14298;50.900;4.648;2022-09-03T14:25:31;4.70;;;2.83;;
26686;SDS011;14298;50.900;4.648;2022-09-03T14:28:13;5.08;;;3.17;;
26686;SDS011;14298;50.900;4.648;2022-09-03T14:31:02;7.20;;;3.02;;
26686;SDS011;14298;50.900;4.648;2022-09-03T14:33:50;7.12;;;2.87;;
26686;SDS011;14298;50.900;4.648;2022-09-03T14:42:11;5.03;;;3.02;;
26686;SDS011;14298;50.900;4.648;2022-09-03T14:47:50;8.58;;;3.27;;
26686;SDS011;14298;50.900;4.648;2022-09-03T14:50:32;2.50;;;2.30;;
26686;SDS011;14298;50.900;4.648;2022-09-03T15:01:35;3.33;;;3.05;;
26686;SDS011;14298;50.900;4.648;2022-09-03T15:04:26;4.78;;;2.60;;
26686;SDS011;14298;50.900;4.648;2022-09-03T15:12:54;3.40;;;3.10;;
26686;SDS011;14298;50.900;4.648;2022-09-03T15:15:33;13.58;;;3.22;;
26686;SDS011;14298;50.900;4.648;2022-09-03T15:20:52;2.85;;;2.60;;
26686;SDS011;14298;50.900;4.648;2022-09-03T15:29:01;3.12;;;2.70;;
26686;SDS011;14298;50.900;4.648;2022-09-03T15:31:51;3.20;;;2.90;;
26686;SDS011;14298;50.900;4.648;2022-09-03T15:37:15;3.72;;;2.83;;
26686;SDS011;14298;50.900;4.648;2022-09-03T15:39:41;6.37;;;2.67;;
26686;SDS011;14298;50.900;4.648;2022-09-03T15:42:24;3.17;;;2.85;;
26686;SDS011;14298;50.900;4.648;2022-09-03T15:44:55;2.83;;;2.62;;
26686;SDS011;14298;50.900;4.648;2022-09-03T15:47:33;3.50;;;2.80;;
26686;SDS011;14298;50.900;4.648;2022-09-03T15:50:09;31.07;;;3.30;;
26686;SDS011;14298;50.900;4.648;2022-09-03T15:52:40;5.83;;;2.80;;
26686;SDS011;14298;50.900;4.648;2022-09-03T15:55:31;4.00;;;2.70;;
26686;SDS011;14298;50.900;4.648;2022-09-03T15:58:05;14.43;;;3.30;;
26686;SDS011;14298;50.900;4.648;2022-09-03T16:00:50;2.87;;;2.60;;
26686;SDS011;14298;50.900;4.648;2022-09-03T16:03:30;3.30;;;3.00;;
26686;SDS011;14298;50.900;4.648;2022-09-03T16:06:30;2.92;;;2.62;;
26686;SDS011;14298;50.900;4.648;2022-09-03T16:09:01;4.67;;;3.20;;
26686;SDS011;14298;50.900;4.648;2022-09-03T16:11:51;3.00;;;2.80;;
26686;SDS011;14298;50.900;4.648;2022-09-03T16:14:40;14.27;;;3.50;;
26686;SDS011;14298;50.900;4.648;2022-09-03T16:20:35;21.57;;;5.77;;
26686;SDS011;14298;50.900;4.648;2022-09-03T16:22:32;108.93;;;15.03;;
26686;SDS011;14298;50.900;4.648;2022-09-03T16:25:20;33.97;;;14.30;;
26686;SDS011;14298;50.900;4.648;2022-09-03T16:27:55;32.63;;;18.57;;
26686;SDS011;14298;50.900;4.648;2022-09-03T16:30:56;15.40;;;8.90;;
26686;SDS011;14298;50.900;4.648;2022-09-03T16:33:31;47.10;;;25.10;;
26686;SDS011;14298;50.900;4.648;2022-09-03T16:36:17;20.43;;;10.60;;
26686;SDS011;14298;50.900;4.648;2022-09-03T16:39:02;10.33;;;7.77;;
26686;SDS011;14298;50.900;4.648;2022-09-03T16:47:11;6.87;;;5.70;;
26686;SDS011;14298;50.900;4.648;2022-09-03T16:49:58;10.57;;;9.57;;
26686;SDS011;14298;50.900;4.648;2022-09-03T16:52:40;10.30;;;9.30;;
26686;SDS011;14298;50.900;4.648;2022-09-03T16:55:21;8.93;;;7.53;;
26686;SDS011;14298;50.900;4.648;2022-09-03T16:57:56;7.33;;;6.60;;
26686;SDS011;14298;50.900;4.648;2022-09-03T17:00:44;6.63;;;5.87;;
26686;SDS011;14298;50.900;4.648;2022-09-03T17:03:15;10.13;;;9.10;;
26686;SDS011;14298;50.900;4.648;2022-09-03T17:12:13;6.60;;;5.30;;
26686;SDS011;14298;50.900;4.648;2022-09-03T17:17:11;6.93;;;5.10;;
26686;SDS011;14298;50.900;4.648;2022-09-03T17:20:02;7.93;;;7.20;;
26686;SDS011;14298;50.900;4.648;2022-09-03T17:25:28;12.10;;;9.53;;
26686;SDS011;14298;50.900;4.648;2022-09-03T17:30:40;8.83;;;7.77;;
26686;SDS011;14298;50.900;4.648;2022-09-03T17:36:17;35.50;;;18.97;;
26686;SDS011;14298;50.900;4.648;2022-09-03T17:38:58;24.90;;;16.00;;
26686;SDS011;14298;50.900;4.648;2022-09-03T17:41:39;63.20;;;29.87;;
26686;SDS011;14298;50.900;4.648;2022-09-03T17:52:37;43.83;;;22.37;;
26686;SDS011;14298;50.900;4.648;2022-09-03T17:55:12;43.00;;;22.73;;
26686;SDS011;14298;50.900;4.648;2022-09-03T17:58:24;13.47;;;12.07;;
26686;SDS011;14298;50.900;4.648;2022-09-03T18:00:53;54.77;;;26.17;;
26686;SDS011;14298;50.900;4.648;2022-09-03T18:03:23;42.77;;;24.63;;
26686;SDS011;14298;50.900;4.648;2022-09-03T18:06:07;51.20;;;26.43;;
26686;SDS011;14298;50.900;4.648;2022-09-03T18:11:18;70.77;;;31.53;;
26686;SDS011;14298;50.900;4.648;2022-09-03T18:17:03;37.70;;;23.97;;
26686;SDS011;14298;50.900;4.648;2022-09-03T18:19:38;42.90;;;27.03;;
26686;SDS011;14298;50.900;4.648;2022-09-03T18:23:15;48.73;;;28.03;;
26686;SDS011;14298;50.900;4.648;2022-09-03T18:25:27;58.63;;;30.80;;
26686;SDS011;14298;50.900;4.648;2022-09-03T18:28:16;27.07;;;20.53;;
26686;SDS011;14298;50.900;4.648;2022-09-03T18:31:08;22.90;;;18.53;;
26686;SDS011;14298;50.900;4.648;2022-09-03T18:33:58;26.00;;;20.63;;
26686;SDS011;14298;50.900;4.648;2022-09-03T18:36:44;26.00;;;18.60;;
26686;SDS011;14298;50.900;4.648;2022-09-03T18:39:30;25.47;;;18.67;;
26686;SDS011;14298;50.900;4.648;2022-09-03T18:45:21;38.13;;;23.50;;
26686;SDS011;14298;50.900;4.648;2022-09-03T18:48:12;42.80;;;24.47;;
26686;SDS011;14298;50.900;4.648;2022-09-03T18:51:05;19.87;;;15.80;;
26686;SDS011;14298;50.900;4.648;2022-09-03T18:54:18;24.40;;;15.10;;
26686;SDS011;14298;50.900;4.648;2022-09-03T18:57:06;29.23;;;19.33;;
26686;SDS011;14298;50.900;4.648;2022-09-03T18:59:57;30.80;;;19.37;;
26686;SDS011;14298;50.900;4.648;2022-09-03T19:02:59;30.27;;;19.57;;
26686;SDS011;14298;50.900;4.648;2022-09-03T19:11:50;23.13;;;16.17;;
26686;SDS011;14298;50.900;4.648;2022-09-03T19:21:01;35.03;;;19.00;;
26686;SDS011;14298;50.900;4.648;2022-09-03T19:23:54;23.73;;;14.90;;
26686;SDS011;14298;50.900;4.648;2022-09-03T19:26:47;18.73;;;14.10;;
26686;SDS011;14298;50.900;4.648;2022-09-03T19:29:51;22.70;;;14.63;;
26686;SDS011;14298;50.900;4.648;2022-09-03T19:33:01;25.57;;;15.97;;